Time;durP1;ratioP1;P1;durP2;ratioP2;P2;SDS_P1;SDS_P2;PMS_P1;PMS_P2;Temp;Humidity;BMP_temperature;BMP_pressure;BME280_temperature;BME280_humidity;BME280_pressure;Samples;Min_cycle;Max_cycle;Signal;HPM_P1;HPM_P2
2022/07/28 00:00:23;;;;;;;2.10;2.00;;;20.70;99.90;;;;;;5026907;28;20290;-73
2022/07/28 00:02:50;;;;;;;2.50;2.30;;;20.60;99.90;;;;;;5033140;28;20218;-73
2022/07/28 00:05:17;;;;;;;2.55;2.35;;;20.50;99.90;;;;;;5029849;28;20199;-74
2022/07/28 00:07:44;;;;;;;2.22;2.03;;;20.50;99.90;;;;;;5029642;28;20590;-73
2022/07/28 00:10:13;;;;;;;3.17;2.22;;;20.50;99.90;;;;;;5027475;28;20223;-73
2022/07/28 00:12:40;;;;;;;2.40;2.20;;;20.40;99.90;;;;;;5030524;28;20220;-72
2022/07/28 00:15:08;;;;;;;2.35;2.17;;;20.30;99.90;;;;;;5025414;28;20208;-72
2022/07/28 00:17:35;;;;;;;2.40;2.20;;;20.30;99.90;;;;;;5028286;28;20693;-72
2022/07/28 00:20:03;;;;;;;2.42;2.22;;;20.40;99.90;;;;;;5027118;28;20216;-71
2022/07/28 00:22:30;;;;;;;3.30;1.85;;;20.50;99.90;;;;;;5025527;28;20680;-72
2022/07/28 00:24:57;;;;;;;3.53;2.30;;;20.60;99.90;;;;;;5029831;28;20192;-72
2022/07/28 00:27:25;;;;;;;2.35;2.08;;;20.70;99.90;;;;;;5028368;28;20227;-72
2022/07/28 00:29:52;;;;;;;2.40;2.15;;;20.80;99.90;;;;;;5024715;28;20232;-72
2022/07/28 00:32:20;;;;;;;2.08;1.92;;;20.70;99.90;;;;;;5025514;28;20226;-71
2022/07/28 00:34:47;;;;;;;1.80;1.70;;;20.60;99.90;;;;;;5024025;28;20211;-72
2022/07/28 00:37:14;;;;;;;3.35;2.10;;;20.60;99.90;;;;;;5028878;28;20223;-73
2022/07/28 00:39:41;;;;;;;2.30;2.10;;;20.70;99.90;;;;;;5027955;28;20216;-72
2022/07/28 00:42:08;;;;;;;2.33;2.13;;;20.70;99.90;;;;;;5026470;28;20230;-72
2022/07/28 00:44:40;;;;;;;2.15;2.00;;;20.70;99.90;;;;;;5026465;28;20227;-73
2022/07/28 00:47:07;;;;;;;7.90;2.15;;;20.70;99.90;;;;;;5026728;28;20715;-71
2022/07/28 00:49:34;;;;;;;2.00;1.90;;;20.70;99.90;;;;;;5031961;28;20601;-72
2022/07/28 00:52:03;;;;;;;1.92;1.83;;;20.60;99.90;;;;;;5024193;28;20693;-72
2022/07/28 00:54:32;;;;;;;1.63;1.52;;;20.60;99.90;;;;;;5027330;28;20215;-72
2022/07/28 00:56:59;;;;;;;1.80;1.70;;;20.60;99.90;;;;;;5030867;28;20216;-72
2022/07/28 00:59:26;;;;;;;1.80;1.70;;;20.60;99.90;;;;;;5026901;28;20223;-72
2022/07/28 01:01:55;;;;;;;1.83;1.73;;;20.60;99.90;;;;;;5027058;28;20199;-73
2022/07/28 01:04:24;;;;;;;1.83;1.73;;;20.50;99.90;;;;;;5024961;28;20196;-72
2022/07/28 01:07:10;;;;;;;2.05;1.95;;;20.40;99.90;;;;;;5024616;28;20243;-73
2022/07/28 01:09:51;;;;;;;1.90;1.77;;;20.40;99.90;;;;;;5028473;28;20692;-72
2022/07/28 01:12:30;;;;;;;1.88;1.77;;;20.40;99.90;;;;;;5026822;28;20239;-72
2022/07/28 01:15:02;;;;;;;2.20;2.00;;;20.40;99.90;;;;;;5028786;28;20199;-72
2022/07/28 01:17:39;;;;;;;1.80;1.70;;;20.50;99.90;;;;;;5025977;28;20246;-72
2022/07/28 01:20:12;;;;;;;2.15;1.95;;;20.50;99.90;;;;;;5022310;28;20219;-72
2022/07/28 01:22:45;;;;;;;2.00;1.90;;;20.50;99.90;;;;;;5023152;28;20223;-72
2022/07/28 01:25:21;;;;;;;1.73;1.63;;;20.40;99.90;;;;;;5024934;28;20199;-72
2022/07/28 01:28:06;;;;;;;1.92;1.83;;;20.50;99.90;;;;;;5025418;28;20223;-72
2022/07/28 01:30:41;;;;;;;2.00;1.90;;;20.50;99.90;;;;;;5026717;28;20235;-72
2022/07/28 01:33:16;;;;;;;2.58;2.00;;;20.50;99.90;;;;;;5020984;28;20302;-71
2022/07/28 01:35:47;;;;;;;1.80;1.70;;;20.50;99.90;;;;;;5027837;28;20297;-72
2022/07/28 01:38:14;;;;;;;2.42;1.63;;;20.50;99.90;;;;;;5025848;28;20227;-72
2022/07/28 01:40:45;;;;;;;1.92;1.83;;;20.50;99.90;;;;;;5024038;28;20725;-72
2022/07/28 01:43:16;;;;;;;1.90;1.80;;;20.40;99.90;;;;;;5024873;28;20310;-72
2022/07/28 01:45:46;;;;;;;1.73;1.63;;;20.40;99.90;;;;;;5027751;28;20986;-72
2022/07/28 01:48:17;;;;;;;1.77;1.67;;;20.40;99.90;;;;;;5025682;28;20215;-72
2022/07/28 01:50:47;;;;;;;1.70;1.60;;;20.40;99.90;;;;;;5024516;28;20215;-71
2022/07/28 01:53:16;;;;;;;2.20;1.98;;;20.40;99.90;;;;;;5024725;28;20231;-72
2022/07/28 01:55:44;;;;;;;1.90;1.80;;;20.40;99.90;;;;;;5026798;28;20207;-72
2022/07/28 01:58:14;;;;;;;2.47;1.77;;;20.40;99.90;;;;;;5024305;28;20223;-72
2022/07/28 02:00:43;;;;;;;2.10;2.00;;;20.40;99.90;;;;;;5025718;28;20212;-72
2022/07/28 02:03:12;;;;;;;2.10;1.80;;;20.40;99.90;;;;;;5024353;28;20656;-72
2022/07/28 02:05:42;;;;;;;2.10;2.00;;;20.40;99.90;;;;;;5025844;28;20199;-72
2022/07/28 02:08:11;;;;;;;2.10;1.90;;;20.40;99.90;;;;;;5023905;28;20242;-72
2022/07/28 02:10:42;;;;;;;1.85;1.75;;;20.30;99.90;;;;;;5025524;28;20230;-72
2022/07/28 02:13:11;;;;;;;1.65;1.55;;;20.30;99.90;;;;;;5021437;28;20226;-71
2022/07/28 02:15:40;;;;;;;1.90;1.80;;;20.30;99.90;;;;;;5025577;28;20202;-72
2022/07/28 02:18:09;;;;;;;1.85;1.75;;;20.40;99.90;;;;;;5023895;28;20277;-71
2022/07/28 02:20:38;;;;;;;2.45;1.92;;;20.40;99.90;;;;;;5027921;28;20219;-72
2022/07/28 02:23:07;;;;;;;1.98;1.77;;;20.40;99.90;;;;;;5020577;28;20219;-72
2022/07/28 02:25:36;;;;;;;2.03;1.92;;;20.40;99.90;;;;;;5024758;28;20604;-72
2022/07/28 02:28:06;;;;;;;3.15;1.92;;;20.40;99.90;;;;;;5024857;28;20234;-73
2022/07/28 02:30:38;;;;;;;2.25;1.88;;;20.40;99.90;;;;;;5023692;28;20231;-72
2022/07/28 02:33:09;;;;;;;1.90;1.80;;;20.40;99.90;;;;;;5023824;28;20219;-72
2022/07/28 02:35:46;;;;;;;2.35;1.98;;;20.40;99.90;;;;;;5021351;28;20901;-72
2022/07/28 02:38:17;;;;;;;2.13;1.88;;;20.30;99.90;;;;;;5023904;28;20215;-72
2022/07/28 02:40:46;;;;;;;1.63;1.52;;;20.30;99.90;;;;;;5024640;28;20219;-71
2022/07/28 02:43:16;;;;;;;2.28;2.08;;;20.30;99.90;;;;;;5024196;28;20230;-72
2022/07/28 02:45:46;;;;;;;1.73;1.63;;;20.30;99.90;;;;;;5022263;28;20417;-72
2022/07/28 02:48:17;;;;;;;1.98;1.88;;;20.20;99.90;;;;;;5024831;28;20224;-72
2022/07/28 02:50:46;;;;;;;2.08;1.88;;;20.20;99.90;;;;;;5024180;28;20223;-73
2022/07/28 02:53:15;;;;;;;1.98;1.88;;;20.30;99.90;;;;;;5025252;28;20306;-72
2022/07/28 02:55:43;;;;;;;1.95;1.85;;;20.20;99.90;;;;;;5025663;28;20520;-72
2022/07/28 02:58:11;;;;;;;2.03;1.90;;;20.20;99.90;;;;;;5024836;28;20216;-72
2022/07/28 03:00:40;;;;;;;1.77;1.67;;;20.10;99.90;;;;;;5022621;28;20223;-72
2022/07/28 03:03:09;;;;;;;1.75;1.55;;;20.10;99.90;;;;;;5024527;28;20219;-71
2022/07/28 03:05:37;;;;;;;1.95;1.85;;;20.10;99.90;;;;;;5024926;28;20200;-72
2022/07/28 03:08:06;;;;;;;2.40;2.28;;;20.10;99.90;;;;;;5022948;28;20720;-72
2022/07/28 03:10:33;;;;;;;1.83;1.73;;;20.10;99.90;;;;;;5022751;28;20223;-72
2022/07/28 03:13:00;;;;;;;1.90;1.80;;;20.10;99.90;;;;;;5025146;28;20223;-72
2022/07/28 03:15:27;;;;;;;2.70;1.80;;;20.10;99.90;;;;;;5022457;28;20298;-72
2022/07/28 03:17:54;;;;;;;1.90;1.80;;;20.10;99.90;;;;;;5020813;28;20223;-72
2022/07/28 03:20:21;;;;;;;2.10;2.00;;;20.10;99.90;;;;;;5023927;28;20226;-71
2022/07/28 03:22:48;;;;;;;2.17;1.98;;;20.20;99.90;;;;;;5022027;28;20218;-72
2022/07/28 03:25:21;;;;;;;1.83;1.73;;;20.20;99.90;;;;;;5022445;28;20200;-72
2022/07/28 03:27:50;;;;;;;2.38;1.75;;;20.20;99.90;;;;;;5023656;28;20219;-72
2022/07/28 03:30:22;;;;;;;1.85;1.73;;;20.10;99.90;;;;;;5025532;28;20229;-72
2022/07/28 03:32:53;;;;;;;2.28;2.10;;;20.10;99.90;;;;;;5023414;28;20223;-72
2022/07/28 03:35:21;;;;;;;1.95;1.85;;;20.10;99.90;;;;;;5025428;28;20207;-72
2022/07/28 03:37:54;;;;;;;2.05;1.90;;;20.20;99.90;;;;;;5022874;28;20609;-72
2022/07/28 03:40:27;;;;;;;1.70;1.60;;;20.10;99.90;;;;;;5025227;28;20231;-72
2022/07/28 03:42:56;;;;;;;2.00;1.90;;;20.10;99.90;;;;;;5022669;28;20223;-72
2022/07/28 03:45:24;;;;;;;1.85;1.75;;;20.10;99.90;;;;;;5025209;28;20203;-72
2022/07/28 03:47:53;;;;;;;2.00;1.90;;;20.10;99.90;;;;;;5025183;28;20230;-73
2022/07/28 03:50:23;;;;;;;2.20;2.10;;;20.10;99.90;;;;;;5027331;28;20223;-72
2022/07/28 03:52:50;;;;;;;2.17;2.00;;;20.10;99.90;;;;;;5028006;28;20298;-72
2022/07/28 03:55:17;;;;;;;1.85;1.75;;;20.10;99.90;;;;;;5029876;28;20195;-72
2022/07/28 03:57:46;;;;;;;2.22;1.90;;;20.00;99.90;;;;;;5027993;28;20219;-71
2022/07/28 04:00:15;;;;;;;1.98;1.88;;;20.00;99.90;;;;;;5024988;28;20219;-72
2022/07/28 04:02:43;;;;;;;2.00;1.90;;;20.00;99.90;;;;;;5023793;28;20749;-72
2022/07/28 04:05:11;;;;;;;2.00;1.90;;;20.00;99.90;;;;;;5025542;28;20246;-72
2022/07/28 04:07:39;;;;;;;2.25;2.05;;;20.00;99.90;;;;;;5021684;28;20242;-72
2022/07/28 04:10:07;;;;;;;2.00;1.90;;;20.00;99.90;;;;;;5025347;28;20212;-72
2022/07/28 04:12:49;;;;;;;2.22;2.10;;;19.90;99.90;;;;;;5019384;28;20220;-71
2022/07/28 04:15:17;;;;;;;2.00;1.90;;;19.90;99.90;;;;;;5025774;28;20230;-72
2022/07/28 04:17:47;;;;;;;2.03;1.92;;;19.80;99.90;;;;;;5024762;28;20216;-71
2022/07/28 04:20:15;;;;;;;1.90;1.80;;;19.90;99.90;;;;;;5023698;28;20216;-72
2022/07/28 04:22:43;;;;;;;1.90;1.80;;;19.90;99.90;;;;;;5023152;28;20240;-72
2022/07/28 04:25:11;;;;;;;2.22;2.03;;;20.00;99.90;;;;;;5028202;28;20203;-71
2022/07/28 04:27:39;;;;;;;1.92;1.83;;;20.10;99.90;;;;;;5024758;28;20224;-72
2022/07/28 04:30:11;;;;;;;2.28;2.08;;;20.20;99.90;;;;;;5028313;28;20246;-72
2022/07/28 04:32:39;;;;;;;2.35;2.15;;;20.30;99.90;;;;;;5064748;22;20222;-75
2022/07/28 04:35:07;;;;;;;1.95;1.85;;;20.30;99.90;;;;;;5051791;28;20264;-75
2022/07/28 04:37:34;;;;;;;1.92;1.80;;;20.30;99.90;;;;;;5056404;28;20226;-75
2022/07/28 04:40:01;;;;;;;1.75;1.65;;;20.20;99.90;;;;;;5049253;28;20215;-75
2022/07/28 04:42:28;;;;;;;2.08;1.95;;;20.10;99.90;;;;;;5049641;28;20318;-74
2022/07/28 04:44:55;;;;;;;2.38;2.17;;;20.00;99.90;;;;;;5050156;28;20191;-75
2022/07/28 04:47:24;;;;;;;2.45;1.85;;;19.90;99.90;;;;;;5045951;28;20246;-75
2022/07/28 04:49:51;;;;;;;2.65;2.45;;;19.90;99.90;;;;;;5050056;28;20192;-75
2022/07/28 04:52:19;;;;;;;2.00;1.90;;;19.90;99.90;;;;;;5048916;28;20226;-74
2022/07/28 04:54:46;;;;;;;2.10;2.00;;;20.10;99.90;;;;;;5046001;28;20916;-75
2022/07/28 04:57:14;;;;;;;2.20;2.10;;;20.30;99.90;;;;;;5044360;28;20214;-75
2022/07/28 04:59:41;;;;;;;2.10;2.00;;;20.40;99.90;;;;;;5045335;28;20226;-75
2022/07/28 05:02:08;;;;;;;2.17;1.98;;;20.50;99.90;;;;;;5047296;28;20226;-75
2022/07/28 05:04:37;;;;;;;2.45;2.25;;;20.60;99.90;;;;;;5050202;28;20222;-75
2022/07/28 05:07:05;;;;;;;2.88;2.40;;;20.60;99.90;;;;;;5049224;28;20259;-75
2022/07/28 05:09:32;;;;;;;2.65;2.45;;;20.50;99.90;;;;;;5047424;28;20218;-75
2022/07/28 05:11:59;;;;;;;2.42;2.22;;;20.40;99.90;;;;;;5049442;28;20752;-74
2022/07/28 05:14:26;;;;;;;2.60;2.40;;;20.40;99.90;;;;;;5049741;28;20262;-75
2022/07/28 05:16:53;;;;;;;2.80;2.60;;;20.40;99.90;;;;;;5049547;28;20270;-75
2022/07/28 05:19:20;;;;;;;2.47;2.28;;;20.30;99.90;;;;;;5047727;28;20222;-74
2022/07/28 05:21:49;;;;;;;2.53;2.33;;;20.20;99.90;;;;;;5047281;28;20218;-75
2022/07/28 05:24:16;;;;;;;2.20;2.10;;;20.10;99.90;;;;;;5050099;28;20214;-74
2022/07/28 05:26:43;;;;;;;2.63;2.45;;;20.10;99.90;;;;;;5048227;28;20198;-74
2022/07/28 05:29:10;;;;;;;2.55;2.35;;;20.10;99.90;;;;;;5045761;28;20202;-75
2022/07/28 05:31:38;;;;;;;3.10;2.13;;;20.10;99.90;;;;;;5050353;28;20230;-75
2022/07/28 05:34:05;;;;;;;3.00;2.35;;;20.10;99.90;;;;;;5047389;28;20211;-75
2022/07/28 05:36:32;;;;;;;2.50;2.30;;;20.10;99.90;;;;;;5051245;28;20199;-74
2022/07/28 05:39:01;;;;;;;2.60;2.40;;;20.10;99.90;;;;;;5041783;28;20214;-75
2022/07/28 05:41:28;;;;;;;2.92;2.50;;;20.00;99.90;;;;;;5048795;28;20705;-74
2022/07/28 05:43:57;;;;;;;2.53;2.35;;;19.90;99.90;;;;;;5046171;28;20705;-75
2022/07/28 05:46:24;;;;;;;3.00;2.70;;;19.90;99.90;;;;;;5046458;28;20662;-75
2022/07/28 05:48:51;;;;;;;2.63;2.42;;;19.90;99.90;;;;;;5050344;28;20215;-75
2022/07/28 05:51:18;;;;;;;2.35;2.15;;;19.90;99.90;;;;;;5047923;28;20635;-74
2022/07/28 05:53:46;;;;;;;2.33;2.13;;;19.90;99.90;;;;;;5050150;28;20229;-73
2022/07/28 05:56:14;;;;;;;2.47;2.30;;;20.00;99.90;;;;;;5048596;28;20658;-74
2022/07/28 05:58:41;;;;;;;2.13;2.03;;;20.10;99.90;;;;;;5048558;28;20223;-75
2022/07/28 06:01:08;;;;;;;1.98;1.88;;;20.20;99.90;;;;;;5046322;28;20664;-74
2022/07/28 06:03:35;;;;;;;2.00;1.90;;;20.30;99.90;;;;;;5049520;28;20222;-75
2022/07/28 06:06:04;;;;;;;2.47;2.17;;;20.60;99.90;;;;;;5049595;28;20684;-75
2022/07/28 06:08:31;;;;;;;2.63;2.28;;;20.90;99.90;;;;;;5049047;28;20839;-75
2022/07/28 06:11:00;;;;;;;2.92;2.72;;;21.20;99.90;;;;;;5049646;28;20199;-74
2022/07/28 06:13:29;;;;;;;2.58;2.38;;;21.30;99.90;;;;;;5047961;28;20288;-75
2022/07/28 06:15:57;;;;;;;3.05;2.85;;;21.20;99.90;;;;;;5047035;28;20230;-74
2022/07/28 06:18:25;;;;;;;2.60;2.40;;;21.10;99.90;;;;;;5047043;28;20229;-75
2022/07/28 06:20:52;;;;;;;2.75;2.55;;;21.00;99.90;;;;;;5045015;28;20206;-74
2022/07/28 06:23:22;;;;;;;2.70;2.50;;;20.90;99.90;;;;;;5041551;28;20242;-74
2022/07/28 06:25:50;;;;;;;3.03;2.83;;;20.90;99.90;;;;;;5048693;28;20195;-75
2022/07/28 06:28:18;;;;;;;2.47;2.33;;;20.80;99.90;;;;;;5044554;28;20226;-72
2022/07/28 06:30:46;;;;;;;2.72;2.50;;;20.80;99.90;;;;;;5048103;28;20226;-75
2022/07/28 06:33:14;;;;;;;3.03;2.70;;;20.80;99.90;;;;;;5049506;28;20222;-74
2022/07/28 06:35:41;;;;;;;2.60;2.40;;;20.80;99.90;;;;;;5047435;28;20705;-75
2022/07/28 06:38:08;;;;;;;3.42;2.90;;;20.90;99.90;;;;;;5043085;28;20215;-75
2022/07/28 06:40:36;;;;;;;2.67;2.47;;;21.00;99.90;;;;;;5045625;28;20704;-75
2022/07/28 06:43:03;;;;;;;2.30;2.10;;;21.10;99.90;;;;;;5045929;28;20222;-74
2022/07/28 06:45:30;;;;;;;2.78;2.58;;;21.40;99.90;;;;;;5045165;28;20214;-75
2022/07/28 06:47:58;;;;;;;2.22;2.13;;;21.70;99.90;;;;;;5047773;28;20561;-75
2022/07/28 06:50:25;;;;;;;3.15;2.85;;;22.00;99.90;;;;;;5043308;28;20979;-77
2022/07/28 06:52:53;;;;;;;3.40;3.20;;;22.20;99.90;;;;;;5037173;28;20727;-75
2022/07/28 06:55:20;;;;;;;3.40;3.13;;;22.10;99.90;;;;;;5037887;28;20206;-74
2022/07/28 06:57:47;;;;;;;2.80;2.60;;;22.10;99.90;;;;;;5039659;28;20724;-75
2022/07/28 07:00:14;;;;;;;3.60;3.10;;;22.10;99.90;;;;;;5042031;28;20210;-74
2022/07/28 07:02:42;;;;;;;3.70;3.40;;;22.00;99.90;;;;;;5044717;28;20218;-75
2022/07/28 07:05:11;;;;;;;3.38;3.17;;;22.00;99.90;;;;;;5038277;28;20264;-73
2022/07/28 07:07:38;;;;;;;2.95;2.75;;;22.10;99.90;;;;;;5038750;28;20642;-74
2022/07/28 07:10:06;;;;;;;2.78;2.58;;;22.50;99.90;;;;;;5039809;28;20672;-74
2022/07/28 07:12:34;;;;;;;3.47;3.13;;;22.90;99.90;;;;;;5039695;28;20231;-75
2022/07/28 07:15:01;;;;;;;3.60;3.30;;;23.00;99.90;;;;;;5032852;28;20214;-74
2022/07/28 07:17:28;;;;;;;3.58;3.28;;;23.20;99.90;;;;;;5038228;28;20455;-75
2022/07/28 07:19:55;;;;;;;3.50;3.20;;;23.40;99.90;;;;;;5034655;28;20212;-74
2022/07/28 07:22:24;;;;;;;3.70;3.40;;;23.40;99.90;;;;;;5034306;28;20235;-74
2022/07/28 07:24:51;;;;;;;3.92;3.60;;;23.30;99.90;;;;;;5038505;28;20685;-74
2022/07/28 07:27:18;;;;;;;3.75;3.45;;;23.10;99.90;;;;;;5039501;28;20714;-75
2022/07/28 07:29:46;;;;;;;3.97;3.50;;;23.20;99.90;;;;;;5041228;28;20192;-75
2022/07/28 07:32:13;;;;;;;5.32;3.75;;;23.30;99.90;;;;;;5037839;28;20740;-75
2022/07/28 07:34:40;;;;;;;3.58;3.28;;;23.60;99.90;;;;;;5038576;28;20195;-75
2022/07/28 07:37:12;;;;;;;4.03;3.63;;;23.80;99.90;;;;;;5039151;28;20507;-72
2022/07/28 07:39:41;;;;;;;4.13;3.83;;;23.70;99.90;;;;;;5037097;28;20211;-75
2022/07/28 07:42:08;;;;;;;3.78;3.42;;;23.70;99.90;;;;;;5037074;28;20231;-75
2022/07/28 07:44:35;;;;;;;4.60;3.30;;;24.00;99.90;;;;;;5038959;28;20775;-73
2022/07/28 07:47:02;;;;;;;3.10;2.90;;;24.20;99.90;;;;;;5038785;28;21290;-75
2022/07/28 07:49:29;;;;;;;4.30;3.55;;;24.30;99.90;;;;;;5039704;28;20194;-74
2022/07/28 07:51:56;;;;;;;3.25;2.95;;;24.40;99.90;;;;;;5038389;28;20211;-74
2022/07/28 07:54:23;;;;;;;3.67;3.17;;;24.50;99.90;;;;;;5036257;28;20210;-73
2022/07/28 07:56:52;;;;;;;4.57;4.03;;;24.60;99.90;;;;;;5039925;28;20229;-73
2022/07/28 07:59:19;;;;;;;4.00;3.22;;;24.40;99.90;;;;;;5040792;28;20225;-75
2022/07/28 08:01:49;;;;;;;3.75;3.25;;;24.40;99.90;;;;;;5036660;28;20222;-75
2022/07/28 08:04:16;;;;;;;2.97;2.70;;;24.60;99.90;;;;;;5039313;28;20195;-75
2022/07/28 08:06:44;;;;;;;3.60;3.30;;;24.80;99.90;;;;;;5040096;28;20245;-72
2022/07/28 08:09:11;;;;;;;3.63;3.33;;;24.90;99.90;;;;;;5037174;28;20202;-75
2022/07/28 08:11:38;;;;;;;3.35;3.00;;;24.70;99.90;;;;;;5044295;28;20215;-75
2022/07/28 08:14:06;;;;;;;4.60;3.40;;;24.80;99.90;;;;;;5042971;28;20226;-74
2022/07/28 08:16:34;;;;;;;3.20;2.90;;;25.00;99.90;;;;;;5040856;28;20198;-73
2022/07/28 08:19:01;;;;;;;3.47;3.28;;;25.00;99.90;;;;;;5039557;28;20284;-75
2022/07/28 08:21:29;;;;;;;3.35;3.05;;;25.10;99.90;;;;;;5040757;28;20940;-75
2022/07/28 08:23:56;;;;;;;3.22;3.00;;;25.20;99.90;;;;;;5039825;28;20231;-74
2022/07/28 08:26:23;;;;;;;3.03;2.83;;;25.30;99.90;;;;;;5041219;28;20199;-75
2022/07/28 08:28:51;;;;;;;3.40;3.10;;;25.40;99.90;;;;;;5042412;28;20215;-74
2022/07/28 08:31:20;;;;;;;3.70;3.40;;;25.50;99.90;;;;;;5040457;28;20770;-73
2022/07/28 08:33:48;;;;;;;3.58;3.28;;;25.80;99.90;;;;;;5042399;28;20225;-74
2022/07/28 08:36:15;;;;;;;3.33;3.03;;;25.90;99.90;;;;;;5043279;28;20260;-75
2022/07/28 08:38:42;;;;;;;5.25;3.72;;;26.20;99.90;;;;;;5043337;28;20227;-74
2022/07/28 08:41:18;;;;;;;3.50;3.20;;;26.30;99.90;;;;;;5039080;28;20226;-73
2022/07/28 08:43:49;;;;;;;3.47;3.17;;;26.20;99.90;;;;;;5040473;28;20217;-73
2022/07/28 08:46:19;;;;;;;3.20;2.90;;;26.00;99.90;;;;;;5048688;28;20315;-75
2022/07/28 08:48:48;;;;;;;3.00;2.80;;;25.80;99.90;;;;;;5048307;28;20309;-74
2022/07/28 08:51:16;;;;;;;3.25;3.05;;;25.80;99.90;;;;;;5044864;28;20479;-74
2022/07/28 08:53:44;;;;;;;3.20;3.00;;;25.90;99.90;;;;;;5041154;28;20599;-74
2022/07/28 08:56:14;;;;;;;3.13;2.92;;;25.90;99.90;;;;;;5044739;28;20179;-74
2022/07/28 08:58:42;;;;;;;3.60;3.30;;;26.00;99.90;;;;;;5044513;28;20229;-75
2022/07/28 09:01:09;;;;;;;4.07;3.08;;;26.10;99.90;;;;;;5040711;28;20221;-72
2022/07/28 09:03:39;;;;;;;3.75;3.45;;;26.10;99.90;;;;;;5043729;28;20889;-75
2022/07/28 09:06:06;;;;;;;3.47;3.28;;;26.20;99.90;;;;;;5042144;28;20214;-75
2022/07/28 09:08:33;;;;;;;3.83;3.53;;;26.10;99.90;;;;;;5042747;28;20235;-74
2022/07/28 09:11:00;;;;;;;3.40;3.10;;;26.20;99.90;;;;;;5043057;28;20201;-75
2022/07/28 09:13:27;;;;;;;3.35;3.08;;;26.20;99.90;;;;;;5042392;28;20731;-75
2022/07/28 09:15:54;;;;;;;3.40;3.20;;;26.20;99.90;;;;;;5040308;28;20203;-75
2022/07/28 09:18:21;;;;;;;4.50;3.50;;;26.40;99.90;;;;;;5041069;28;20219;-74
2022/07/28 09:20:50;;;;;;;3.30;3.10;;;26.50;99.90;;;;;;5043488;28;20715;-75
2022/07/28 09:23:17;;;;;;;3.72;3.08;;;26.60;99.90;;;;;;5042105;28;20226;-73
2022/07/28 09:25:44;;;;;;;3.42;3.13;;;26.80;99.90;;;;;;5040034;28;20252;-75
2022/07/28 09:28:13;;;;;;;3.47;3.17;;;26.80;99.90;;;;;;5040496;28;20217;-74
2022/07/28 09:30:43;;;;;;;5.22;3.60;;;26.70;99.90;;;;;;5042980;28;20673;-75
2022/07/28 09:33:20;;;;;;;3.88;3.58;;;26.60;99.90;;;;;;5040439;28;20215;-73
2022/07/28 09:35:51;;;;;;;3.78;3.47;;;26.70;99.90;;;;;;5043537;28;20606;-75
2022/07/28 09:38:19;;;;;;;3.60;3.25;;;26.70;99.90;;;;;;5040081;28;20214;-73
2022/07/28 09:40:58;;;;;;;3.17;2.97;;;26.80;99.90;;;;;;5040526;28;20210;-74
2022/07/28 09:43:36;;;;;;;4.30;3.40;;;27.00;99.90;;;;;;5035952;28;20225;-74
2022/07/28 09:46:05;;;;;;;3.75;3.42;;;27.20;99.90;;;;;;5042004;28;20690;-72
2022/07/28 09:48:32;;;;;;;3.45;3.20;;;27.30;99.90;;;;;;5039794;28;20218;-73
2022/07/28 09:51:12;;;;;;;4.07;3.67;;;27.30;99.90;;;;;;5045396;28;20747;-75
2022/07/28 09:53:40;;;;;;;4.00;3.35;;;27.40;99.90;;;;;;5038054;28;20795;-76
2022/07/28 09:56:08;;;;;;;3.20;3.00;;;27.60;99.90;;;;;;5046694;28;20201;-74
2022/07/28 09:58:35;;;;;;;3.15;2.92;;;27.60;99.90;;;;;;5046075;28;20591;-75
2022/07/28 10:01:04;;;;;;;3.60;3.28;;;27.60;99.90;;;;;;5042398;28;21044;-75
2022/07/28 10:03:32;;;;;;;2.92;2.72;;;27.60;99.90;;;;;;5042301;28;20274;-75
2022/07/28 10:06:03;;;;;;;2.63;2.42;;;27.60;99.90;;;;;;5044135;28;20665;-75
2022/07/28 10:08:42;;;;;;;3.08;2.88;;;27.70;99.90;;;;;;5042292;28;20222;-75
2022/07/28 10:11:10;;;;;;;3.08;2.88;;;27.70;99.90;;;;;;5044324;28;20608;-75
2022/07/28 10:13:52;;;;;;;2.67;2.47;;;27.80;99.90;;;;;;5045489;28;20233;-73
2022/07/28 10:16:20;;;;;;;3.28;3.08;;;28.00;99.90;;;;;;5042407;28;20191;-75
2022/07/28 10:18:47;;;;;;;3.13;2.83;;;28.10;99.90;;;;;;5036409;28;20219;-75
2022/07/28 10:21:16;;;;;;;3.33;3.03;;;28.10;99.90;;;;;;5041615;28;20218;-75
2022/07/28 10:23:48;;;;;;;3.42;3.13;;;28.10;99.90;;;;;;5043406;28;20222;-75
2022/07/28 10:26:15;;;;;;;2.90;2.70;;;28.00;99.90;;;;;;5044924;28;20199;-74
2022/07/28 10:28:48;;;;;;;2.50;2.40;;;28.10;99.90;;;;;;5038518;28;20222;-74
2022/07/28 10:31:23;;;;;;;4.53;2.97;;;28.30;99.90;;;;;;5041584;28;20272;-73
2022/07/28 10:33:53;;;;;;;3.55;3.25;;;28.40;99.90;;;;;;5084767;22;20273;-77
2022/07/28 10:36:25;;;;;;;3.92;2.50;;;28.40;99.90;;;;;;5066085;28;20202;-75
2022/07/28 10:39:04;;;;;;;3.00;2.80;;;28.50;99.90;;;;;;5067727;28;20210;-76
2022/07/28 10:41:39;;;;;;;3.20;2.65;;;28.50;99.90;;;;;;5062486;28;20578;-74
2022/07/28 10:44:07;;;;;;;2.60;2.40;;;28.60;99.90;;;;;;5064426;28;20312;-77
2022/07/28 10:46:35;;;;;;;3.15;2.90;;;28.60;99.90;;;;;;5061967;28;20198;-79
2022/07/28 10:49:03;;;;;;;3.17;2.40;;;28.80;99.90;;;;;;5061370;28;20222;-77
2022/07/28 10:51:31;;;;;;;2.70;2.50;;;28.80;99.90;;;;;;5062946;28;20688;-77
2022/07/28 10:54:07;;;;;;;2.65;2.45;;;29.00;99.90;;;;;;5063883;28;20624;-78
2022/07/28 10:56:48;;;;;;;2.90;2.70;;;29.10;99.90;;;;;;5064921;28;20213;-79
2022/07/28 10:59:34;;;;;;;2.20;2.10;;;29.10;99.90;;;;;;5065792;28;20653;-78
2022/07/28 11:02:01;;;;;;;2.92;2.60;;;29.00;99.90;;;;;;5064924;28;20213;-78
2022/07/28 11:05:00;;;;;;;2.50;2.30;;;29.10;99.90;;;;;;5064706;28;20197;-77
2022/07/28 11:07:39;;;;;;;2.83;2.58;;;29.20;99.90;;;;;;5065128;28;20222;-78
2022/07/28 11:10:18;;;;;;;2.75;2.55;;;29.50;99.90;;;;;;5061690;28;20269;-78
2022/07/28 11:12:46;;;;;;;2.85;2.65;;;29.50;99.90;;;;;;5066076;28;20217;-76
2022/07/28 11:15:26;;;;;;;2.78;2.58;;;29.30;99.90;;;;;;5067715;28;20190;-79
2022/07/28 11:18:07;;;;;;;2.42;2.22;;;29.10;99.90;;;;;;5064433;28;20245;-78
2022/07/28 11:21:05;;;;;;;2.53;2.33;;;28.80;99.90;;;;;;5068125;28;20241;-78
2022/07/28 11:23:56;;;;;;;2.20;2.10;;;28.40;99.90;;;;;;5060533;28;20654;-79
2022/07/28 11:26:38;;;;;;;2.15;2.00;;;28.20;99.90;;;;;;5057309;28;20202;-80
2022/07/28 11:29:24;;;;;;;2.20;2.10;;;28.20;99.90;;;;;;5061917;28;20932;-77
2022/07/28 11:32:02;;;;;;;2.20;2.10;;;28.10;99.90;;;;;;5066827;28;20189;-76
2022/07/28 11:35:06;;;;;;;2.70;2.50;;;28.50;99.90;;;;;;5062455;28;20257;-76
2022/07/28 11:38:09;;;;;;;2.53;2.33;;;29.20;99.90;;;;;;5063253;28;20592;-75
2022/07/28 11:40:38;;;;;;;2.60;2.40;;;29.60;99.90;;;;;;5066195;28;20666;-75
2022/07/28 11:43:34;;;;;;;2.85;2.63;;;29.60;99.90;;;;;;5065604;28;20584;-78
2022/07/28 11:46:33;;;;;;;3.90;2.40;;;29.70;99.90;;;;;;5029054;28;20641;-76
2022/07/28 11:49:33;;;;;;;2.40;2.25;;;29.80;99.90;;;;;;5066422;28;20919;-75
2022/07/28 11:52:15;;;;;;;2.88;2.35;;;30.00;99.90;;;;;;5062496;28;20187;-74
2022/07/28 11:54:47;;;;;;;2.35;2.15;;;30.10;99.90;;;;;;5061955;28;20198;-75
2022/07/28 11:57:15;;;;;;;2.40;2.03;;;30.20;99.90;;;;;;5062826;28;20228;-76
2022/07/28 11:59:47;;;;;;;2.63;2.45;;;30.40;99.90;;;;;;5059754;28;20229;-76
2022/07/28 12:02:19;;;;;;;2.63;2.42;;;30.50;99.90;;;;;;5064831;28;20770;-75
2022/07/28 12:04:46;;;;;;;2.60;2.40;;;30.50;99.90;;;;;;5067155;28;20200;-76
2022/07/28 12:07:13;;;;;;;2.70;2.50;;;30.60;99.90;;;;;;5064566;28;20232;-76
2022/07/28 12:09:40;;;;;;;2.45;2.10;;;30.60;99.90;;;;;;5063641;28;20202;-76
2022/07/28 12:12:09;;;;;;;2.60;2.40;;;30.70;99.90;;;;;;5062233;28;20249;-78
2022/07/28 12:14:39;;;;;;;3.28;2.55;;;30.70;99.90;;;;;;5060976;28;20214;-76
2022/07/28 12:17:09;;;;;;;2.30;2.20;;;30.80;99.90;;;;;;5065998;28;20297;-76
2022/07/28 12:19:36;;;;;;;2.50;2.30;;;30.90;99.90;;;;;;5059009;28;20287;-76
2022/07/28 12:22:10;;;;;;;2.30;2.10;;;30.70;99.90;;;;;;5062472;28;20229;-76
2022/07/28 12:24:37;;;;;;;2.33;2.22;;;31.00;99.90;;;;;;5060750;28;20205;-77
2022/07/28 12:27:04;;;;;;;2.45;2.25;;;31.20;99.90;;;;;;5059686;28;20218;-76
2022/07/28 12:29:32;;;;;;;2.00;1.90;;;31.20;99.90;;;;;;5061006;28;20195;-75
2022/07/28 12:32:01;;;;;;;2.55;2.35;;;31.30;99.90;;;;;;5067106;28;20221;-76
2022/07/28 12:34:30;;;;;;;2.63;2.08;;;31.40;99.90;;;;;;5065072;28;20466;-76
2022/07/28 12:37:00;;;;;;;2.00;1.90;;;31.50;99.90;;;;;;5059198;28;20202;-76
2022/07/28 12:39:29;;;;;;;2.40;2.20;;;31.60;99.90;;;;;;5062689;28;20571;-76
2022/07/28 12:42:04;;;;;;;2.50;2.30;;;31.70;99.90;;;;;;5062548;28;20229;-75
2022/07/28 12:44:35;;;;;;;2.00;1.90;;;31.70;99.90;;;;;;5061698;28;20554;-77
2022/07/28 12:47:03;;;;;;;2.65;2.45;;;31.80;99.90;;;;;;5059459;28;20234;-75
2022/07/28 12:49:32;;;;;;;2.60;2.40;;;31.80;99.90;;;;;;5063142;28;20191;-76
2022/07/28 12:51:59;;;;;;;2.55;2.35;;;31.80;99.90;;;;;;5061181;28;20201;-78
2022/07/28 12:54:36;;;;;;;2.70;2.50;;;31.70;99.90;;;;;;5061698;28;20194;-79
2022/07/28 12:57:04;;;;;;;2.15;2.05;;;31.70;99.90;;;;;;5066132;28;20222;-78
2022/07/28 12:59:33;;;;;;;3.00;2.40;;;31.60;99.90;;;;;;5067606;28;20206;-76
2022/07/28 13:02:01;;;;;;;2.58;2.38;;;31.80;99.90;;;;;;5067220;28;20211;-76